createdAt,value
2017-08-12T00:00:06.464Z,0
2017-08-12T00:00:47.399Z,0
2017-08-12T00:01:28.300Z,0
2017-08-12T00:02:09.194Z,0
2017-08-12T00:02:50.102Z,0
2017-08-12T00:03:30.985Z,0
2017-08-12T00:04:11.869Z,0
2017-08-12T00:04:52.746Z,0
2017-08-12T00:05:33.643Z,0
2017-08-12T00:06:14.534Z,0
2017-08-12T00:06:55.419Z,0
2017-08-12T00:07:36.305Z,0
2017-08-12T00:08:17.197Z,0
2017-08-12T00:08:58.082Z,0
2017-08-12T00:09:38.972Z,0
2017-08-12T00:10:19.868Z,0
2017-08-12T00:11:00.755Z,0
2017-08-12T00:11:41.656Z,0
2017-08-12T00:12:22.539Z,0
2017-08-12T00:13:03.424Z,0
2017-08-12T00:13:44.315Z,0
2017-08-12T00:14:25.213Z,0
2017-08-12T00:15:06.331Z,0
2017-08-12T00:15:47.227Z,0
2017-08-12T00:16:28.119Z,0
2017-08-12T00:17:09.008Z,0
2017-08-12T00:17:49.896Z,0
2017-08-12T00:18:30.781Z,0
2017-08-12T00:19:11.675Z,0
2017-08-12T00:19:52.559Z,0
2017-08-12T00:20:33.444Z,0
2017-08-12T00:21:14.379Z,0
2017-08-12T00:21:55.274Z,0
2017-08-12T00:22:36.162Z,0
2017-08-12T00:23:17.052Z,0
2017-08-12T00:23:57.947Z,0
2017-08-12T00:24:38.836Z,0
2017-08-12T00:25:19.724Z,0
2017-08-12T00:26:00.607Z,0
2017-08-12T00:26:41.493Z,0
2017-08-12T00:27:22.400Z,0
2017-08-12T00:28:03.272Z,0
2017-08-12T00:28:44.167Z,0
2017-08-12T00:29:25.053Z,0
2017-08-12T00:30:05.937Z,0
2017-08-12T00:30:46.832Z,0
2017-08-12T00:31:27.727Z,0
2017-08-12T00:32:08.613Z,0
2017-08-12T00:32:49.531Z,0
2017-08-12T00:33:30.423Z,0
2017-08-12T00:34:11.322Z,0
2017-08-12T00:34:52.221Z,0
2017-08-12T00:35:33.123Z,0
2017-08-12T00:36:14.021Z,0
2017-08-12T00:36:54.907Z,0
2017-08-12T00:37:35.795Z,0
2017-08-12T00:38:16.683Z,0
2017-08-12T00:38:57.584Z,0
2017-08-12T00:39:38.469Z,0
2017-08-12T00:40:19.355Z,0
2017-08-12T00:41:00.247Z,0
2017-08-12T00:41:41.135Z,0
2017-08-12T00:42:22.021Z,0
2017-08-12T00:43:02.911Z,0
2017-08-12T00:43:43.804Z,0
2017-08-12T00:44:24.711Z,0
2017-08-12T00:45:05.596Z,0
2017-08-12T00:45:46.492Z,0
2017-08-12T00:46:27.383Z,0
2017-08-12T00:47:08.274Z,0
2017-08-12T00:47:49.154Z,0
2017-08-12T00:48:30.034Z,0
2017-08-12T00:49:10.935Z,0
2017-08-12T00:49:51.825Z,0
2017-08-12T00:50:32.709Z,0
2017-08-12T00:51:13.612Z,0
2017-08-12T00:51:54.498Z,0
2017-08-12T00:52:35.389Z,0
2017-08-12T00:53:16.279Z,0
2017-08-12T00:53:57.166Z,0
2017-08-12T00:54:38.041Z,0
2017-08-12T00:55:18.926Z,0
2017-08-12T00:55:59.813Z,0
2017-08-12T00:56:40.697Z,0
2017-08-12T00:57:21.588Z,0
2017-08-12T00:58:02.479Z,0
2017-08-12T00:58:43.374Z,0
2017-08-12T00:59:24.267Z,0
2017-08-12T01:00:05.158Z,0
2017-08-12T01:00:46.049Z,0
2017-08-12T01:01:26.951Z,0
2017-08-12T01:02:07.836Z,0
2017-08-12T01:02:48.725Z,0
2017-08-12T01:03:29.617Z,0
2017-08-12T01:04:10.506Z,0
2017-08-12T01:04:51.390Z,0
2017-08-12T01:05:32.279Z,0
2017-08-12T01:06:13.177Z,0
2017-08-12T01:06:54.062Z,0
2017-08-12T01:07:34.953Z,0
2017-08-12T01:08:15.848Z,0
2017-08-12T01:08:56.737Z,0
2017-08-12T01:09:37.629Z,0
2017-08-12T01:10:18.527Z,0
2017-08-12T01:10:59.444Z,0
2017-08-12T01:11:40.327Z,0
2017-08-12T01:12:21.222Z,0
2017-08-12T01:13:02.128Z,0
2017-08-12T01:13:42.983Z,0
2017-08-12T01:14:23.868Z,0
2017-08-12T01:15:04.751Z,0
2017-08-12T01:15:45.637Z,0
2017-08-12T01:16:26.513Z,0
2017-08-12T01:17:07.409Z,0
2017-08-12T01:17:48.316Z,0
2017-08-12T01:18:29.183Z,0
2017-08-12T01:19:10.066Z,0
2017-08-12T01:19:50.973Z,0
2017-08-12T01:20:31.861Z,0
2017-08-12T01:21:12.751Z,0
2017-08-12T01:21:53.651Z,0
2017-08-12T01:22:34.519Z,0
2017-08-12T01:23:15.393Z,0
2017-08-12T01:23:56.290Z,0
2017-08-12T01:24:37.180Z,0
2017-08-12T01:25:18.061Z,0
2017-08-12T01:25:58.948Z,0
2017-08-12T01:26:39.859Z,0
2017-08-12T01:27:20.740Z,0
2017-08-12T01:28:01.625Z,0
2017-08-12T01:28:42.526Z,0
2017-08-12T01:29:23.410Z,0
2017-08-12T01:30:04.298Z,0
2017-08-12T01:30:45.187Z,0
2017-08-12T01:31:26.091Z,0
2017-08-12T01:32:06.973Z,0
2017-08-12T01:32:47.866Z,0
2017-08-12T01:33:28.765Z,0
2017-08-12T01:34:09.660Z,0
2017-08-12T01:34:50.559Z,0
2017-08-12T01:35:31.448Z,0
2017-08-12T01:36:12.330Z,0
2017-08-12T01:36:53.228Z,0
2017-08-12T01:37:34.106Z,0
2017-08-12T01:38:14.971Z,0
2017-08-12T01:38:55.850Z,0
2017-08-12T01:39:36.739Z,0
2017-08-12T01:40:17.630Z,0
2017-08-12T01:40:58.549Z,0
2017-08-12T01:41:39.439Z,0
2017-08-12T01:42:20.357Z,0
2017-08-12T01:43:01.205Z,0
2017-08-12T01:43:42.112Z,0
2017-08-12T01:44:22.979Z,0
2017-08-12T01:45:03.865Z,0
2017-08-12T01:45:44.752Z,0
2017-08-12T01:46:25.647Z,0
2017-08-12T01:47:06.537Z,0
2017-08-12T01:47:47.429Z,0
2017-08-12T01:48:28.322Z,0
2017-08-12T01:49:09.210Z,0
2017-08-12T01:49:50.094Z,0
2017-08-12T01:50:30.986Z,0
2017-08-12T01:51:11.877Z,0
2017-08-12T01:51:52.763Z,0
2017-08-12T01:52:33.656Z,0
2017-08-12T01:53:14.554Z,0
2017-08-12T01:53:55.425Z,0
2017-08-12T01:54:36.303Z,0
2017-08-12T01:55:17.209Z,0
2017-08-12T01:55:58.102Z,0
2017-08-12T01:56:38.984Z,0
2017-08-12T01:57:19.886Z,0
2017-08-12T01:58:00.772Z,0
2017-08-12T01:58:41.660Z,0
2017-08-12T01:59:22.561Z,0
2017-08-12T02:00:03.447Z,0
2017-08-12T02:00:44.334Z,0
2017-08-12T02:01:25.247Z,0
2017-08-12T02:02:06.119Z,0
2017-08-12T02:02:47.011Z,0
2017-08-12T02:03:27.911Z,0
2017-08-12T02:04:08.798Z,0
2017-08-12T02:04:49.685Z,0
2017-08-12T02:05:30.576Z,0
2017-08-12T02:06:11.470Z,0
2017-08-12T02:06:52.356Z,0
2017-08-12T02:07:33.248Z,0
2017-08-12T02:08:14.126Z,0
2017-08-12T02:08:55.016Z,0
2017-08-12T02:09:35.906Z,0
2017-08-12T02:10:16.802Z,0
2017-08-12T02:10:57.692Z,0
2017-08-12T02:11:38.611Z,0
2017-08-12T02:12:19.485Z,0
2017-08-12T02:13:00.373Z,0
2017-08-12T02:13:41.263Z,0
2017-08-12T02:14:22.167Z,0
2017-08-12T02:15:03.043Z,0
2017-08-12T02:15:43.927Z,0
2017-08-12T02:16:24.829Z,0
2017-08-12T02:17:05.720Z,0
2017-08-12T02:17:46.636Z,0
2017-08-12T02:18:27.515Z,0
2017-08-12T02:19:08.396Z,0
2017-08-12T02:19:49.278Z,0
2017-08-12T02:20:30.168Z,0
2017-08-12T02:21:11.062Z,0
2017-08-12T02:21:51.950Z,0
2017-08-12T02:22:32.818Z,0
2017-08-12T02:23:13.704Z,0
2017-08-12T02:23:54.602Z,0
2017-08-12T02:24:35.483Z,0
2017-08-12T02:25:16.361Z,0
2017-08-12T02:25:57.247Z,0
2017-08-12T02:26:38.130Z,0
2017-08-12T02:27:19.004Z,0
2017-08-12T02:27:59.893Z,0
2017-08-12T02:28:40.781Z,0
2017-08-12T02:29:21.660Z,0
2017-08-12T02:30:02.539Z,0
2017-08-12T02:30:43.429Z,0
2017-08-12T02:31:24.333Z,0
2017-08-12T02:32:05.217Z,0
2017-08-12T02:32:46.105Z,0
2017-08-12T02:33:27.015Z,0
2017-08-12T02:34:07.881Z,0
2017-08-12T02:34:48.771Z,0
2017-08-12T02:35:29.668Z,0
2017-08-12T02:36:10.572Z,0
2017-08-12T02:36:51.457Z,0
2017-08-12T02:37:32.352Z,0
2017-08-12T02:38:13.242Z,0
2017-08-12T02:38:54.129Z,0
2017-08-12T02:39:35.030Z,0
2017-08-12T02:40:15.919Z,0
2017-08-12T02:40:56.806Z,0
2017-08-12T02:41:37.708Z,0
2017-08-12T02:42:18.584Z,0
2017-08-12T02:42:59.480Z,0
2017-08-12T02:43:40.380Z,0
2017-08-12T02:44:21.261Z,0
2017-08-12T02:45:02.155Z,0
2017-08-12T02:45:43.056Z,0
2017-08-12T02:46:23.937Z,0
2017-08-12T02:47:04.831Z,0
2017-08-12T02:47:45.719Z,0
2017-08-12T02:48:26.607Z,0
2017-08-12T02:49:07.480Z,0
2017-08-12T02:49:48.366Z,0
2017-08-12T02:50:29.262Z,0
2017-08-12T02:51:10.144Z,0
2017-08-12T02:51:51.035Z,0
2017-08-12T02:52:31.932Z,0
2017-08-12T02:53:12.817Z,0
2017-08-12T02:53:53.700Z,0
2017-08-12T02:54:34.596Z,0
2017-08-12T02:55:15.486Z,0
2017-08-12T02:55:56.375Z,0
2017-08-12T02:56:37.267Z,0
2017-08-12T02:57:18.160Z,0
2017-08-12T02:57:59.046Z,0
2017-08-12T02:58:39.936Z,0
2017-08-12T02:59:20.823Z,0
2017-08-12T03:00:01.718Z,0
2017-08-12T03:00:42.603Z,0
2017-08-12T03:01:23.500Z,0
2017-08-12T03:02:04.390Z,0
2017-08-12T03:02:45.286Z,0
2017-08-12T03:03:26.173Z,0
2017-08-12T03:04:07.067Z,0
2017-08-12T03:04:47.954Z,0
2017-08-12T03:05:28.851Z,0
2017-08-12T03:06:09.740Z,0
2017-08-12T03:06:50.628Z,0
2017-08-12T03:07:31.504Z,0
2017-08-12T03:08:12.394Z,0
2017-08-12T03:08:53.302Z,0
2017-08-12T03:09:34.180Z,0
2017-08-12T03:10:15.070Z,0
2017-08-12T03:10:55.958Z,0
2017-08-12T03:11:36.852Z,0
2017-08-12T03:12:17.734Z,0
2017-08-12T03:12:58.623Z,0
2017-08-12T03:13:39.515Z,0
2017-08-12T03:14:20.408Z,0
2017-08-12T03:15:01.327Z,0
2017-08-12T03:15:42.202Z,4
2017-08-12T03:16:23.105Z,4
2017-08-12T03:17:03.989Z,4
2017-08-12T03:17:44.880Z,4
2017-08-12T03:18:25.762Z,4
2017-08-12T03:19:06.631Z,4
2017-08-12T03:19:47.538Z,4
2017-08-12T03:20:28.437Z,4
2017-08-12T03:21:09.347Z,4
2017-08-12T03:21:50.237Z,4
2017-08-12T03:22:31.118Z,0
2017-08-12T03:23:12.007Z,4
2017-08-12T03:23:52.895Z,4
2017-08-12T03:24:33.780Z,4
2017-08-12T03:25:14.662Z,4
2017-08-12T03:25:55.541Z,8
2017-08-12T03:26:36.423Z,4
2017-08-12T03:27:17.321Z,8
2017-08-12T03:27:58.204Z,8
2017-08-12T03:28:39.103Z,8
2017-08-12T03:29:19.989Z,8
2017-08-12T03:30:00.877Z,8
2017-08-12T03:30:41.771Z,12
2017-08-12T03:31:22.672Z,12
2017-08-12T03:32:03.561Z,12
2017-08-12T03:32:44.450Z,12
2017-08-12T03:33:25.345Z,12
2017-08-12T03:34:06.236Z,8
2017-08-12T03:34:47.132Z,12
2017-08-12T03:35:28.021Z,12
2017-08-12T03:36:08.907Z,12
2017-08-12T03:36:49.802Z,12
2017-08-12T03:37:30.702Z,12
2017-08-12T03:38:11.585Z,16
2017-08-12T03:38:52.487Z,16
2017-08-12T03:39:33.384Z,12
2017-08-12T03:40:14.283Z,16
2017-08-12T03:40:55.181Z,20
2017-08-12T03:41:36.073Z,20
2017-08-12T03:42:16.967Z,20
2017-08-12T03:42:57.865Z,20
2017-08-12T03:43:38.754Z,20
2017-08-12T03:44:19.646Z,24
2017-08-12T03:45:00.547Z,20
2017-08-12T03:45:41.433Z,28
2017-08-12T03:46:22.327Z,28
2017-08-12T03:47:03.202Z,32
2017-08-12T03:47:44.106Z,32
2017-08-12T03:48:25.002Z,36
2017-08-12T03:49:05.905Z,44
2017-08-12T03:49:46.789Z,44
2017-08-12T03:50:27.677Z,40
2017-08-12T03:51:08.579Z,44
2017-08-12T03:51:49.495Z,48
2017-08-12T03:52:30.381Z,44
2017-08-12T03:53:11.271Z,40
2017-08-12T03:53:52.157Z,44
2017-08-12T03:54:33.050Z,44
2017-08-12T03:55:13.947Z,48
2017-08-12T03:55:54.836Z,48
2017-08-12T03:56:35.739Z,60
2017-08-12T03:57:16.633Z,60
2017-08-12T03:57:57.517Z,60
2017-08-12T03:58:38.414Z,64
2017-08-12T03:59:19.301Z,64
2017-08-12T04:00:00.188Z,72
2017-08-12T04:00:41.085Z,104
2017-08-12T04:01:21.968Z,116
2017-08-12T04:02:02.857Z,104
2017-08-12T04:02:43.745Z,108
2017-08-12T04:03:24.631Z,104
2017-08-12T04:04:05.521Z,100
2017-08-12T04:04:46.409Z,108
2017-08-12T04:05:27.302Z,120
2017-08-12T04:06:08.189Z,112
2017-08-12T04:06:49.083Z,120
2017-08-12T04:07:29.991Z,120
2017-08-12T04:08:10.868Z,128
2017-08-12T04:08:51.762Z,128
2017-08-12T04:09:32.642Z,120
2017-08-12T04:10:13.524Z,108
2017-08-12T04:10:54.403Z,108
2017-08-12T04:11:35.287Z,128
2017-08-12T04:12:16.184Z,132
2017-08-12T04:12:57.065Z,148
2017-08-12T04:13:37.948Z,152
2017-08-12T04:14:18.831Z,132
2017-08-12T04:14:59.720Z,132
2017-08-12T04:15:40.612Z,144
2017-08-12T04:16:21.498Z,152
2017-08-12T04:17:02.400Z,148
2017-08-12T04:17:43.278Z,152
2017-08-12T04:18:24.184Z,164
2017-08-12T04:19:05.071Z,176
2017-08-12T04:19:45.952Z,168
2017-08-12T04:20:26.840Z,164
2017-08-12T04:21:07.732Z,168
2017-08-12T04:21:48.609Z,168
2017-08-12T04:22:29.491Z,168
2017-08-12T04:23:10.387Z,180
2017-08-12T04:23:51.272Z,184
2017-08-12T04:24:32.157Z,224
2017-08-12T04:25:13.042Z,224
2017-08-12T04:25:53.945Z,268
2017-08-12T04:26:34.830Z,348
2017-08-12T04:27:15.723Z,328
2017-08-12T04:27:56.638Z,344
2017-08-12T04:28:37.503Z,336
2017-08-12T04:29:18.402Z,316
2017-08-12T04:29:59.287Z,380
2017-08-12T04:30:40.200Z,484
2017-08-12T04:31:21.095Z,548
2017-08-12T04:32:01.982Z,540
2017-08-12T04:32:42.866Z,432
2017-08-12T04:33:23.759Z,368
2017-08-12T04:34:04.646Z,328
2017-08-12T04:34:45.528Z,344
2017-08-12T04:35:26.403Z,352
2017-08-12T04:36:07.289Z,456
2017-08-12T04:36:48.190Z,480
2017-08-12T04:37:29.055Z,444
2017-08-12T04:38:09.938Z,404
2017-08-12T04:38:50.826Z,388
2017-08-12T04:39:31.723Z,420
2017-08-12T04:40:12.612Z,480
2017-08-12T04:40:53.554Z,464
2017-08-12T04:41:34.432Z,488
2017-08-12T04:42:15.313Z,548
2017-08-12T04:42:56.205Z,496
2017-08-12T04:43:37.091Z,472
2017-08-12T04:44:17.966Z,528
2017-08-12T04:44:58.855Z,640
2017-08-12T04:45:39.736Z,532
2017-08-12T04:46:20.624Z,488
2017-08-12T04:47:01.511Z,532
2017-08-12T04:47:42.395Z,528
2017-08-12T04:48:23.284Z,464
2017-08-12T04:49:04.171Z,496
2017-08-12T04:49:45.058Z,520
2017-08-12T04:50:25.962Z,588
2017-08-12T04:51:06.849Z,668
2017-08-12T04:51:47.752Z,784
2017-08-12T04:52:28.655Z,776
2017-08-12T04:53:09.549Z,552
2017-08-12T04:53:50.438Z,540
2017-08-12T04:54:31.326Z,600
2017-08-12T04:55:12.254Z,628
2017-08-12T04:55:53.138Z,680
2017-08-12T04:56:34.020Z,704
2017-08-12T04:57:14.905Z,628
2017-08-12T04:57:55.815Z,688
2017-08-12T04:58:36.687Z,684
2017-08-12T04:59:17.577Z,680
2017-08-12T04:59:58.468Z,636
2017-08-12T05:00:39.346Z,704
2017-08-12T05:01:20.261Z,660
2017-08-12T05:02:01.166Z,700
2017-08-12T05:02:42.033Z,684
2017-08-12T05:03:22.954Z,676
2017-08-12T05:04:03.834Z,752
2017-08-12T05:04:44.712Z,780
2017-08-12T05:05:25.606Z,792
2017-08-12T05:06:06.491Z,808
2017-08-12T05:06:47.373Z,748
2017-08-12T05:07:28.259Z,672
2017-08-12T05:08:09.156Z,752
2017-08-12T05:08:50.033Z,668
2017-08-12T05:09:30.918Z,668
2017-08-12T05:10:11.816Z,696
2017-08-12T05:10:52.703Z,808
2017-08-12T05:11:33.584Z,788
2017-08-12T05:12:14.471Z,872
2017-08-12T05:12:55.361Z,956
2017-08-12T05:13:36.242Z,844
2017-08-12T05:14:17.149Z,848
2017-08-12T05:14:58.025Z,840
2017-08-12T05:15:38.923Z,864
2017-08-12T05:16:19.793Z,984
2017-08-12T05:17:00.675Z,952
2017-08-12T05:17:41.560Z,944
2017-08-12T05:18:22.469Z,1024
2017-08-12T05:19:03.332Z,1056
2017-08-12T05:19:44.219Z,904
2017-08-12T05:20:25.112Z,840
2017-08-12T05:21:06.000Z,736
2017-08-12T05:21:46.886Z,764
2017-08-12T05:22:27.770Z,824
2017-08-12T05:23:08.663Z,716
2017-08-12T05:23:49.544Z,704
2017-08-12T05:24:30.421Z,740
2017-08-12T05:25:11.300Z,856
2017-08-12T05:25:52.199Z,1048
2017-08-12T05:26:33.086Z,980
2017-08-12T05:27:13.977Z,940
2017-08-12T05:27:54.873Z,1004
2017-08-12T05:28:35.762Z,1036
2017-08-12T05:29:16.656Z,984
2017-08-12T05:29:57.548Z,1012
2017-08-12T05:32:36.997Z,868
2017-08-12T05:33:17.886Z,860
2017-08-12T05:33:58.771Z,904
2017-08-12T05:34:39.663Z,956
2017-08-12T05:35:20.545Z,972
2017-08-12T05:36:01.435Z,964
2017-08-12T05:36:42.325Z,976
2017-08-12T05:37:23.208Z,1108
2017-08-12T05:38:04.090Z,1012
2017-08-12T05:38:44.980Z,1028
2017-08-12T05:39:25.866Z,1028
2017-08-12T05:40:06.769Z,1044
2017-08-12T05:40:47.650Z,1180
2017-08-12T05:41:28.532Z,1252
2017-08-12T05:42:09.443Z,1328
2017-08-12T05:42:50.327Z,1240
2017-08-12T05:43:31.212Z,1280
2017-08-12T05:44:12.110Z,1128
2017-08-12T05:44:52.995Z,1228
2017-08-12T05:45:33.868Z,1292
2017-08-12T05:46:14.748Z,1172
2017-08-12T05:46:55.626Z,1360
2017-08-12T05:47:36.511Z,1312
2017-08-12T05:48:17.404Z,1256
2017-08-12T05:48:58.281Z,1204
2017-08-12T05:49:39.174Z,1300
2017-08-12T05:50:20.060Z,1148
2017-08-12T05:51:00.940Z,1248
2017-08-12T05:51:41.828Z,1328
2017-08-12T05:52:22.720Z,1280
2017-08-12T05:53:03.606Z,1408
2017-08-12T05:53:44.483Z,1348
2017-08-12T05:54:25.359Z,1248
2017-08-12T05:55:06.240Z,1216
2017-08-12T05:55:47.144Z,1224
2017-08-12T05:56:28.020Z,1328
2017-08-12T05:57:08.907Z,1388
2017-08-12T05:57:49.808Z,1460
2017-08-12T05:58:30.673Z,1464
2017-08-12T05:59:11.549Z,1576
2017-08-12T05:59:52.431Z,1404
2017-08-12T06:00:33.340Z,1392
2017-08-12T06:01:14.201Z,1460
2017-08-12T06:01:55.076Z,1496
2017-08-12T06:02:35.955Z,1744
2017-08-12T06:03:16.827Z,1656
2017-08-12T06:03:57.711Z,1768
2017-08-12T06:04:38.593Z,1816
2017-08-12T06:05:19.470Z,1832
2017-08-12T06:06:00.358Z,1932
2017-08-12T06:06:41.248Z,2048
2017-08-12T06:07:22.124Z,1956
2017-08-12T06:08:03.003Z,1812
2017-08-12T06:08:43.900Z,1752
2017-08-12T06:09:24.779Z,1856
2017-08-12T06:10:05.667Z,1756
2017-08-12T06:10:46.559Z,1820
2017-08-12T06:11:27.446Z,2176
2017-08-12T06:12:08.355Z,2332
2017-08-12T06:12:49.241Z,1980
2017-08-12T06:13:30.129Z,1736
2017-08-12T06:14:11.025Z,1624
2017-08-12T06:14:51.894Z,1780
2017-08-12T06:15:32.789Z,1932
2017-08-12T06:17:31.586Z,3124
2017-08-12T06:18:12.492Z,3672
2017-08-12T06:18:53.372Z,3316
2017-08-12T06:19:34.248Z,3556
2017-08-12T06:20:15.122Z,3176
2017-08-12T06:20:56.009Z,2524
2017-08-12T06:21:36.886Z,3316
2017-08-12T06:22:17.771Z,2988
2017-08-12T06:22:58.684Z,2936
2017-08-12T06:23:39.567Z,3412
2017-08-12T06:24:20.450Z,3008
2017-08-12T06:25:01.340Z,2764
2017-08-12T06:25:42.229Z,3156
2017-08-12T06:26:23.120Z,3056
2017-08-12T06:27:04.008Z,3512
2017-08-12T06:27:44.910Z,4108
2017-08-12T06:28:25.797Z,3252
2017-08-12T06:29:06.688Z,3100
2017-08-12T06:29:47.586Z,3312
2017-08-12T06:30:28.482Z,4520
2017-08-12T06:31:09.360Z,3696
2017-08-12T06:31:50.248Z,3476
2017-08-12T06:32:31.126Z,3812
2017-08-12T06:33:12.166Z,3788
2017-08-12T06:33:53.051Z,3748
2017-08-12T06:34:33.930Z,4760
2017-08-12T06:35:14.820Z,5652
2017-08-12T06:35:55.719Z,4348
2017-08-12T06:36:36.591Z,4616
2017-08-12T06:37:17.472Z,5208
2017-08-12T06:37:58.355Z,4112
2017-08-12T06:38:39.244Z,3616
2017-08-12T06:39:20.130Z,4388
2017-08-12T06:40:01.008Z,4040
2017-08-12T06:40:41.909Z,3576
2017-08-12T06:41:22.791Z,3700
2017-08-12T06:42:03.682Z,3556
2017-08-12T06:42:44.566Z,3604
2017-08-12T06:43:25.461Z,3868
2017-08-12T06:44:06.338Z,4320
2017-08-12T06:44:47.215Z,4232
2017-08-12T06:45:28.107Z,4404
2017-08-12T06:46:08.991Z,4812
2017-08-12T06:46:49.875Z,4412
2017-08-12T06:47:30.759Z,4364
2017-08-12T06:48:11.653Z,4728
2017-08-12T06:48:52.535Z,4484
2017-08-12T06:49:33.412Z,3716
2017-08-12T06:50:14.299Z,3520
2017-08-12T06:50:55.201Z,3668
2017-08-12T06:51:36.081Z,3736
2017-08-12T06:52:16.965Z,3144
2017-08-12T06:52:57.854Z,2912
2017-08-12T06:53:38.743Z,2716
2017-08-12T06:54:19.626Z,2840
2017-08-12T06:55:00.510Z,2780
2017-08-12T06:55:41.414Z,2528
2017-08-12T06:56:22.292Z,2328
2017-08-12T06:57:03.172Z,2348
2017-08-12T06:57:44.071Z,2764
2017-08-12T06:58:24.965Z,2820
2017-08-12T06:59:05.850Z,3088
2017-08-12T06:59:46.762Z,3584
2017-08-12T07:00:27.643Z,3064
2017-08-12T07:01:08.525Z,2736
2017-08-12T07:01:49.426Z,2444
2017-08-12T07:02:30.314Z,2480
2017-08-12T07:03:11.198Z,2028
2017-08-12T07:03:52.113Z,1788
2017-08-12T07:04:32.990Z,1852
2017-08-12T07:05:13.868Z,2188
2017-08-12T07:05:54.767Z,2260
2017-08-12T07:06:35.697Z,2576
2017-08-12T07:07:16.593Z,2216
2017-08-12T07:07:57.477Z,2104
2017-08-12T07:08:38.348Z,2380
2017-08-12T07:09:19.232Z,2564
2017-08-12T07:10:00.127Z,2524
2017-08-12T07:10:41.014Z,2236
2017-08-12T07:11:21.888Z,2228
2017-08-12T07:12:02.772Z,2568
2017-08-12T07:12:43.675Z,2128
2017-08-12T07:13:24.564Z,2580
2017-08-12T07:14:05.444Z,2472
2017-08-12T07:14:46.357Z,2272
2017-08-12T07:15:27.241Z,2352
2017-08-12T07:16:08.125Z,2256
2017-08-12T07:16:49.011Z,2188
2017-08-12T07:17:29.898Z,2316
2017-08-12T07:18:10.785Z,2168
2017-08-12T07:18:51.673Z,2164
2017-08-12T07:19:32.570Z,2072
2017-08-12T07:20:13.446Z,2020
2017-08-12T07:20:54.332Z,2040
2017-08-12T07:21:35.225Z,2144
2017-08-12T07:22:16.117Z,2116
2017-08-12T07:22:56.993Z,2260
2017-08-12T07:23:37.912Z,2208
2017-08-12T07:24:18.785Z,1940
2017-08-12T07:24:59.671Z,2040
2017-08-12T07:25:40.570Z,2276
2017-08-12T07:26:21.465Z,2516
2017-08-12T07:27:02.338Z,1992
2017-08-12T07:27:43.228Z,2056
2017-08-12T07:28:24.147Z,2148
2017-08-12T07:29:05.020Z,1980
2017-08-12T07:29:45.909Z,2180
2017-08-12T07:30:26.800Z,2136
2017-08-12T07:31:07.684Z,2604
2017-08-12T07:31:48.558Z,2920
2017-08-12T07:32:29.446Z,2820
2017-08-12T07:33:10.410Z,2308
2017-08-12T07:33:51.312Z,2296
2017-08-12T07:34:32.174Z,2300
2017-08-12T07:35:13.049Z,2792
2017-08-12T07:35:53.935Z,2508
2017-08-12T07:36:34.832Z,2252
2017-08-12T07:37:15.711Z,2120
2017-08-12T07:37:56.614Z,2160
2017-08-12T07:38:37.479Z,2072
2017-08-12T07:39:18.381Z,2056
2017-08-12T07:39:59.244Z,1832
2017-08-12T07:40:40.125Z,2188
2017-08-12T07:41:21.007Z,2268
2017-08-12T07:42:01.890Z,2396
2017-08-12T07:42:42.781Z,2136
2017-08-12T07:43:23.669Z,2372
2017-08-12T07:44:04.570Z,2620
2017-08-12T07:44:45.452Z,2452
2017-08-12T07:45:26.325Z,1984
2017-08-12T07:46:07.218Z,1788
2017-08-12T07:46:48.126Z,2240
2017-08-12T07:47:28.987Z,1984
2017-08-12T07:48:09.866Z,2020
2017-08-12T07:48:50.752Z,2216
2017-08-12T07:49:31.646Z,2272
2017-08-12T07:50:12.523Z,2000
2017-08-12T07:50:53.400Z,2936
2017-08-12T07:51:34.287Z,2724
2017-08-12T07:52:15.204Z,1824
2017-08-12T07:52:56.068Z,2068
2017-08-12T07:53:36.954Z,2664
2017-08-12T07:54:17.848Z,2816
2017-08-12T07:54:58.734Z,2416
2017-08-12T07:55:39.607Z,2344
2017-08-12T07:56:20.504Z,3188
2017-08-12T07:57:01.380Z,2868
2017-08-12T07:57:42.256Z,2816
2017-08-12T07:58:23.141Z,2268
2017-08-12T07:59:04.034Z,2388
2017-08-12T07:59:44.909Z,3296
2017-08-12T08:00:25.804Z,3576
2017-08-12T08:01:06.689Z,3036
2017-08-12T08:01:47.569Z,3448
2017-08-12T08:02:28.443Z,3172
2017-08-12T08:03:09.323Z,2956
2017-08-12T08:03:50.200Z,3192
2017-08-12T08:04:31.093Z,3632
2017-08-12T08:05:11.991Z,3232
2017-08-12T08:05:52.877Z,2596
2017-08-12T08:06:33.740Z,2372
2017-08-12T08:07:14.628Z,3124
2017-08-12T08:07:55.522Z,3348
2017-08-12T08:08:36.402Z,3252
2017-08-12T08:09:17.279Z,2768
2017-08-12T08:09:58.213Z,2852
2017-08-12T08:10:39.092Z,3676
2017-08-12T08:11:19.968Z,3744
2017-08-12T08:12:00.863Z,3208
2017-08-12T08:12:41.766Z,3100
2017-08-12T08:13:22.655Z,3688
2017-08-12T08:14:03.530Z,4308
2017-08-12T08:14:44.450Z,3936
2017-08-12T08:15:25.317Z,3124
2017-08-12T08:16:06.210Z,4816
2017-08-12T08:16:47.069Z,4640
2017-08-12T08:17:27.927Z,4348
2017-08-12T08:18:08.785Z,4636
2017-08-12T08:18:49.652Z,4200
2017-08-12T08:19:30.546Z,3992
2017-08-12T08:20:11.435Z,4764
2017-08-12T08:20:52.290Z,4580
2017-08-12T08:21:33.163Z,4964
2017-08-12T08:22:14.034Z,5676
2017-08-12T08:22:54.903Z,5740
2017-08-12T08:23:35.774Z,5812
2017-08-12T08:24:16.634Z,5544
2017-08-12T08:24:57.614Z,5504
2017-08-12T08:25:38.666Z,5084
2017-08-12T08:26:19.687Z,4360
2017-08-12T08:27:00.686Z,5004
2017-08-12T08:27:41.689Z,4012
2017-08-12T08:28:22.756Z,5108
2017-08-12T08:29:03.878Z,5356
2017-08-12T08:29:44.884Z,6200
2017-08-12T08:30:25.961Z,5516
2017-08-12T08:31:06.984Z,5620
2017-08-12T08:31:48.073Z,5480
2017-08-12T08:32:29.121Z,5468
2017-08-12T08:33:10.130Z,4880
2017-08-12T08:33:51.155Z,4932
2017-08-12T08:34:32.220Z,4116
2017-08-12T08:35:13.237Z,4512
2017-08-12T08:35:54.264Z,4580
2017-08-12T08:36:35.360Z,6104
2017-08-12T08:38:29.204Z,5168
2017-08-12T08:39:10.203Z,5148
2017-08-12T08:39:51.147Z,5384
2017-08-12T08:40:32.122Z,6052
2017-08-12T08:41:13.071Z,6412
2017-08-12T08:41:53.964Z,5912
2017-08-12T08:42:34.843Z,6060
2017-08-12T08:43:15.714Z,6012
2017-08-12T08:43:56.585Z,4936
2017-08-12T08:44:37.505Z,5124
2017-08-12T08:45:18.373Z,5256
2017-08-12T08:45:59.277Z,6672
2017-08-12T08:46:40.122Z,6860
2017-08-12T08:47:20.985Z,6160
2017-08-12T08:48:01.858Z,5108
2017-08-12T08:48:42.721Z,4956
2017-08-12T08:49:23.590Z,4968
2017-08-12T08:50:04.464Z,4244
2017-08-12T08:50:45.347Z,4304
2017-08-12T08:51:26.224Z,4892
2017-08-12T08:52:07.090Z,4820
2017-08-12T08:52:48.008Z,4544
2017-08-12T08:53:28.884Z,5456
2017-08-12T08:54:09.748Z,5060
2017-08-12T08:54:50.635Z,4432
2017-08-12T08:55:31.499Z,4520
2017-08-12T08:56:12.408Z,4480
2017-08-12T08:56:53.278Z,4792
2017-08-12T08:57:34.225Z,4496
2017-08-12T08:58:15.108Z,4328
2017-08-12T08:58:55.967Z,4592
2017-08-12T08:59:36.830Z,4400
2017-08-12T09:00:17.715Z,4816
2017-08-12T09:00:58.603Z,4268
2017-08-12T09:01:39.498Z,4780
2017-08-12T09:02:20.384Z,6188
2017-08-12T09:04:29.377Z,5324
2017-08-12T09:05:10.241Z,5232
2017-08-12T09:05:51.156Z,5888
2017-08-12T09:06:32.040Z,8252
2017-08-12T09:08:25.653Z,4868
2017-08-12T09:09:06.560Z,4080
2017-08-12T09:09:47.444Z,4204
2017-08-12T09:10:28.335Z,5072
2017-08-12T09:11:09.222Z,6964
2017-08-12T09:11:50.109Z,6464
2017-08-12T09:12:30.975Z,5908
2017-08-12T09:13:11.847Z,5596
2017-08-12T09:13:52.724Z,5708
2017-08-12T09:14:33.607Z,5260
2017-08-12T09:15:14.489Z,5424
2017-08-12T09:15:55.361Z,5056
2017-08-12T09:16:36.218Z,5604
2017-08-12T09:17:17.093Z,5584
2017-08-12T09:17:57.969Z,6584
2017-08-12T09:18:38.856Z,7432
2017-08-12T09:19:19.733Z,6424
2017-08-12T09:20:00.623Z,7380
2017-08-12T09:20:41.500Z,7536
2017-08-12T09:21:22.394Z,7592
2017-08-12T09:22:03.284Z,7708
2017-08-12T09:22:44.156Z,7152
2017-08-12T09:23:25.020Z,8728
2017-08-12T09:24:05.888Z,9348
2017-08-12T09:24:46.786Z,9204
2017-08-12T09:25:27.663Z,9452
2017-08-12T09:26:08.534Z,9684
2017-08-12T09:26:49.404Z,10104
2017-08-12T09:27:30.263Z,9292
2017-08-12T09:28:11.140Z,8464
2017-08-12T09:28:52.022Z,7520
2017-08-12T09:29:32.909Z,7948
2017-08-12T09:30:13.838Z,7072
2017-08-12T09:30:54.741Z,9208
2017-08-12T09:31:35.592Z,9652
2017-08-12T09:32:16.465Z,10820
2017-08-12T09:32:57.337Z,11112
2017-08-12T09:33:38.226Z,10620
2017-08-12T09:34:19.123Z,10540
2017-08-12T09:34:59.980Z,9748
2017-08-12T09:35:40.868Z,8844
2017-08-12T09:36:21.751Z,10064
2017-08-12T09:37:02.700Z,9984